MMMZ/MZT METAR and TAF weather

Enter ICAO airport designator
Station Type Date Time Source
MMMZ METAR 2020/11/25 21:42 UTC NOAA

MMMZ 252142Z 30012KT 15SM FEW090 31/19 A2988 RMK 8/030 ISOL CI


Station Type Date Time Source
MMMZ Decoded METAR 2020/11/25 21:42 UTC NOAA

Mazatlan / G. Buelna, Mexico (MMMZ) 23-10N 106-16W
Nov 25, 2020 - 04:42 PM EST / 2020.11.25 2142 UTC
Wind: from the WNW (300 degrees) at 14 MPH (12 KT):0
Visibility: 15 mile(s):0
Sky conditions: mostly clear
Temperature: 87 F (31 C)
Dew Point: 66 F (19 C)
Relative Humidity: 48%
Pressure (altimeter): 29.88 in. Hg (1011 hPa)
ob: MMMZ 252142Z 30012KT 15SM FEW090 31/19 A2988 RMK 8/030 ISOL CI
cycle: 21

Station Type Date Time Source
MMMZ TAF 2020/11/25 18:48 UTC NOAA

TAF TAF MMMZ 251644Z 2518/2624 28010KT P6SM SCT080 TX29/2521Z TN19/2613Z
FM260300 01005KT P6SM SCT200
FM261700 26008KT P6SM SCT280
BECMG 2618/2619 28010KT

Example: see airport list